Time;durP1;ratioP1;P1;durP2;ratioP2;P2;SDS_P1;SDS_P2;PMS_P1;PMS_P2;Temp;Humidity;BMP_temperature;BMP_pressure;BME280_temperature;BME280_humidity;BME280_pressure;Samples;Min_cycle;Max_cycle;Signal;HPM_P1;HPM_P2
2023/03/05 00:01:52;;;;;;;1.52;1.00;;;19.80;59.10;;;;;;5070095;28;20183;-62
2023/03/05 00:04:23;;;;;;;2.28;1.20;;;19.80;59.10;;;;;;5070263;28;20622;-62
2023/03/05 00:06:54;;;;;;;1.92;1.30;;;19.80;59.10;;;;;;5070355;28;20183;-53
2023/03/05 00:09:26;;;;;;;2.42;1.23;;;19.80;59.10;;;;;;5070074;28;20203;-61
2023/03/05 00:11:57;;;;;;;1.58;1.20;;;19.80;59.00;;;;;;5070316;28;20214;-55
2023/03/05 00:14:28;;;;;;;1.88;1.10;;;19.80;58.90;;;;;;5070953;28;20230;-57
2023/03/05 00:16:58;;;;;;;2.08;1.40;;;19.70;58.70;;;;;;5070443;28;20573;-56
2023/03/05 00:19:29;;;;;;;1.65;1.20;;;19.70;58.60;;;;;;5070190;28;20206;-54
2023/03/05 00:22:00;;;;;;;3.08;1.35;;;19.70;58.60;;;;;;5071004;28;20199;-57
2023/03/05 00:24:32;;;;;;;2.30;1.40;;;19.70;58.60;;;;;;5070861;28;20302;-57
2023/03/05 00:27:03;;;;;;;3.28;1.67;;;19.70;58.60;;;;;;5070666;28;20206;-55
2023/03/05 00:29:34;;;;;;;2.65;1.05;;;19.70;59.20;;;;;;5073220;28;20191;-62
2023/03/05 00:32:04;;;;;;;3.17;1.20;;;19.60;58.60;;;;;;5058439;28;20195;-58
2023/03/05 00:34:35;;;;;;;1.95;0.73;;;19.60;58.70;;;;;;5073878;28;20737;-53
2023/03/05 00:37:06;;;;;;;1.73;1.00;;;19.60;58.70;;;;;;5074185;28;20716;-57
2023/03/05 00:39:38;;;;;;;3.70;1.40;;;19.50;58.70;;;;;;5053980;28;20274;-60
2023/03/05 00:42:09;;;;;;;2.10;1.35;;;19.50;58.80;;;;;;5053404;28;20196;-60
2023/03/05 00:44:40;;;;;;;2.22;1.83;;;19.50;58.80;;;;;;5053672;28;20219;-59
2023/03/05 00:47:11;;;;;;;3.20;1.50;;;19.50;58.80;;;;;;5054010;28;20199;-56
2023/03/05 00:49:41;;;;;;;3.22;2.00;;;19.40;58.70;;;;;;5054540;28;20559;-61
2023/03/05 00:52:12;;;;;;;2.60;1.95;;;19.40;58.70;;;;;;5073190;28;20207;-60
2023/03/05 00:54:44;;;;;;;2.33;2.05;;;19.40;58.60;;;;;;5073274;28;20230;-58
2023/03/05 00:57:15;;;;;;;2.15;1.35;;;19.40;58.60;;;;;;5073316;28;20207;-60
2023/03/05 00:59:46;;;;;;;3.05;1.80;;;19.30;58.50;;;;;;5073293;28;20199;-57
2023/03/05 01:02:17;;;;;;;2.47;1.60;;;19.30;58.50;;;;;;5073211;28;20207;-56
2023/03/05 01:04:47;;;;;;;1.60;1.40;;;19.30;58.60;;;;;;5072608;28;20230;-65
2023/03/05 01:07:18;;;;;;;3.15;1.10;;;19.30;58.70;;;;;;5072326;28;20559;-62
2023/03/05 01:09:51;;;;;;;3.30;1.10;;;19.20;58.70;;;;;;5072989;28;20217;-58
2023/03/05 01:12:21;;;;;;;3.60;0.80;;;19.20;58.80;;;;;;5073302;28;20206;-62
2023/03/05 01:14:52;;;;;;;2.22;0.90;;;19.20;58.90;;;;;;5073855;28;20223;-61
2023/03/05 01:17:23;;;;;;;2.33;0.80;;;19.10;58.90;;;;;;5073335;28;20202;-62
2023/03/05 01:19:53;;;;;;;2.70;1.05;;;19.10;58.90;;;;;;5073123;28;20199;-59
2023/03/05 01:22:24;;;;;;;1.65;0.73;;;19.10;59.00;;;;;;5072609;28;20658;-58
2023/03/05 01:24:56;;;;;;;3.67;1.00;;;19.10;59.10;;;;;;5073137;28;20230;-60
2023/03/05 01:27:27;;;;;;;1.77;0.95;;;19.00;59.10;;;;;;5072799;28;20209;-59
2023/03/05 01:29:58;;;;;;;2.83;1.10;;;19.00;59.20;;;;;;5072912;28;20198;-53
2023/03/05 01:32:28;;;;;;;0.95;0.77;;;19.00;59.30;;;;;;5072795;28;20561;-56
2023/03/05 01:34:59;;;;;;;2.58;1.15;;;19.00;59.40;;;;;;5058935;28;20698;-57
2023/03/05 01:37:30;;;;;;;1.70;1.10;;;19.00;59.30;;;;;;5072544;28;20194;-61
2023/03/05 01:40:02;;;;;;;1.77;1.10;;;18.90;59.30;;;;;;5072344;28;20679;-61
2023/03/05 01:42:33;;;;;;;2.67;1.50;;;18.90;59.40;;;;;;5072206;28;20654;-61
2023/03/05 01:45:06;;;;;;;3.25;1.63;;;18.90;59.40;;;;;;5071791;28;20573;-58
2023/03/05 01:47:37;;;;;;;2.50;1.60;;;18.90;59.50;;;;;;5072302;28;20209;-57
2023/03/05 01:50:10;;;;;;;1.75;1.30;;;18.90;59.50;;;;;;5072555;28;20205;-58
2023/03/05 01:52:44;;;;;;;2.17;1.65;;;18.90;59.70;;;;;;5072506;28;20202;-59
2023/03/05 01:55:19;;;;;;;2.92;1.33;;;18.80;59.70;;;;;;5072455;28;20663;-57
2023/03/05 01:57:54;;;;;;;2.55;1.33;;;18.80;59.80;;;;;;5072219;28;20202;-59
2023/03/05 02:00:30;;;;;;;2.78;1.27;;;18.80;59.90;;;;;;5072326;28;20202;-60
2023/03/05 02:03:03;;;;;;;2.17;1.40;;;18.80;60.00;;;;;;5071897;28;20202;-60
2023/03/05 02:05:36;;;;;;;2.33;1.63;;;18.80;60.00;;;;;;5071705;28;20249;-59
2023/03/05 02:08:09;;;;;;;3.10;1.63;;;18.80;60.10;;;;;;5056203;28;20294;-64
2023/03/05 02:10:43;;;;;;;3.45;1.60;;;18.80;60.60;;;;;;5052505;28;20679;-64
2023/03/05 02:13:18;;;;;;;2.15;1.13;;;18.80;61.00;;;;;;5057928;28;20495;-61
2023/03/05 02:15:49;;;;;;;2.00;1.13;;;18.80;61.10;;;;;;5072258;28;20347;-62
2023/03/05 02:18:21;;;;;;;3.25;1.67;;;18.80;61.50;;;;;;5070918;28;20206;-62
2023/03/05 02:20:53;;;;;;;4.07;2.00;;;18.80;62.00;;;;;;5070944;28;20187;-62
2023/03/05 02:23:27;;;;;;;2.47;1.48;;;18.80;62.20;;;;;;5068080;28;20198;-61
2023/03/05 02:25:58;;;;;;;1.92;1.50;;;18.80;62.40;;;;;;5070354;28;20225;-62
2023/03/05 02:28:33;;;;;;;3.35;2.10;;;18.90;62.50;;;;;;5068907;28;20201;-63
2023/03/05 02:31:09;;;;;;;5.28;2.53;;;18.90;62.70;;;;;;5068886;28;20193;-60
2023/03/05 02:33:40;;;;;;;3.50;2.40;;;18.90;62.60;;;;;;5071573;28;20222;-62
2023/03/05 02:36:12;;;;;;;28.60;26.50;;;18.90;62.60;;;;;;5071416;28;20619;-66
2023/03/05 02:38:45;;;;;;;52.85;48.45;;;18.90;63.90;;;;;;5071900;28;20194;-66
2023/03/05 02:41:16;;;;;;;15.15;13.77;;;18.90;64.30;;;;;;5066436;28;20191;-63
2023/03/05 02:43:47;;;;;;;16.13;14.55;;;19.00;63.80;;;;;;5068821;28;20647;-64
2023/03/05 02:46:18;;;;;;;16.63;14.90;;;19.00;63.90;;;;;;5068161;28;20211;-63
2023/03/05 02:48:49;;;;;;;10.43;9.00;;;19.10;62.80;;;;;;5070318;28;20743;-60
2023/03/05 02:51:19;;;;;;;6.60;4.97;;;19.10;62.50;;;;;;5056005;28;20195;-64
2023/03/05 02:53:52;;;;;;;4.22;3.00;;;19.10;62.20;;;;;;5071246;28;20591;-58
2023/03/05 02:56:23;;;;;;;2.53;2.17;;;19.10;61.80;;;;;;5070920;28;20320;-62
2023/03/05 02:58:53;;;;;;;3.33;1.60;;;19.10;61.60;;;;;;5070967;28;20202;-61
2023/03/05 03:01:26;;;;;;;2.53;1.35;;;19.10;61.40;;;;;;5069291;28;20197;-60
2023/03/05 03:03:58;;;;;;;3.72;1.23;;;19.10;61.30;;;;;;5070970;28;20215;-63
2023/03/05 03:06:28;;;;;;;2.08;1.20;;;19.10;61.10;;;;;;5071346;28;20210;-64
2023/03/05 03:09:02;;;;;;;2.50;0.95;;;19.10;61.00;;;;;;5071536;28;20655;-64
2023/03/05 03:11:32;;;;;;;1.27;0.77;;;19.10;60.90;;;;;;5071223;28;20194;-62
2023/03/05 03:14:03;;;;;;;0.93;0.70;;;19.10;61.00;;;;;;5071709;28;20650;-64
2023/03/05 03:16:35;;;;;;;1.20;0.65;;;19.10;61.10;;;;;;5070825;28;20217;-64
2023/03/05 03:19:05;;;;;;;0.80;0.60;;;19.00;61.00;;;;;;5055561;28;20190;-65
2023/03/05 03:21:36;;;;;;;1.05;0.70;;;19.00;61.00;;;;;;5070785;28;20190;-61
2023/03/05 03:24:09;;;;;;;1.60;0.80;;;19.00;61.00;;;;;;5070626;28;20191;-65
2023/03/05 03:26:39;;;;;;;1.27;0.82;;;19.00;61.00;;;;;;5068592;28;20191;-61
2023/03/05 03:29:10;;;;;;;1.80;0.68;;;19.00;61.10;;;;;;5070892;28;20206;-64
2023/03/05 03:31:41;;;;;;;1.08;0.63;;;19.00;61.10;;;;;;5070479;28;20201;-65
2023/03/05 03:34:11;;;;;;;1.50;0.98;;;19.00;61.40;;;;;;5070758;28;20234;-64
2023/03/05 03:36:42;;;;;;;1.27;0.82;;;19.00;61.50;;;;;;5079181;28;20651;-64
2023/03/05 03:39:16;;;;;;;1.75;0.90;;;19.00;61.40;;;;;;5071036;28;20624;-64
2023/03/05 03:41:48;;;;;;;1.50;0.65;;;19.00;61.10;;;;;;5060535;28;20199;-53
2023/03/05 03:44:19;;;;;;;2.75;0.85;;;19.00;61.70;;;;;;5070536;28;20234;-61
2023/03/05 03:46:50;;;;;;;2.15;1.02;;;19.00;61.30;;;;;;5066148;28;20274;-64
2023/03/05 03:49:23;;;;;;;1.83;0.80;;;19.00;62.00;;;;;;5070261;28;20198;-63
2023/03/05 03:51:54;;;;;;;1.35;0.80;;;19.00;61.30;;;;;;5050615;28;20674;-63
2023/03/05 03:54:27;;;;;;;1.02;0.70;;;19.00;60.90;;;;;;5051292;28;20243;-64
2023/03/05 03:56:58;;;;;;;2.67;0.80;;;19.00;60.80;;;;;;5061571;28;20217;-64
2023/03/05 03:59:28;;;;;;;2.10;1.15;;;19.00;60.70;;;;;;5070819;28;20199;-63
2023/03/05 04:01:59;;;;;;;1.13;0.70;;;19.00;61.10;;;;;;5069877;28;20203;-62
2023/03/05 04:04:30;;;;;;;1.33;0.70;;;19.00;61.00;;;;;;5072635;28;20234;-60
2023/03/05 04:07:00;;;;;;;1.85;0.93;;;19.00;60.60;;;;;;5074610;28;20202;-62
2023/03/05 04:09:33;;;;;;;4.13;1.00;;;19.00;60.50;;;;;;5074625;28;20659;-63
2023/03/05 04:12:04;;;;;;;1.30;0.60;;;19.00;60.30;;;;;;5054094;28;20206;-62
2023/03/05 04:14:34;;;;;;;3.13;1.00;;;18.90;60.10;;;;;;5054718;28;20683;-64
2023/03/05 04:17:05;;;;;;;1.77;0.75;;;18.90;60.00;;;;;;5074187;28;20198;-61
2023/03/05 04:19:36;;;;;;;2.67;0.85;;;19.00;59.90;;;;;;5073814;28;20193;-63
2023/03/05 04:22:07;;;;;;;2.40;1.25;;;18.90;59.80;;;;;;5073535;28;20195;-63
2023/03/05 04:24:39;;;;;;;4.10;2.28;;;18.90;59.80;;;;;;5073469;28;20215;-62
2023/03/05 04:27:11;;;;;;;3.72;2.92;;;18.90;59.80;;;;;;5072171;28;20194;-63
2023/03/05 04:29:41;;;;;;;3.00;2.10;;;18.90;59.80;;;;;;5073470;28;20203;-61
2023/03/05 04:32:12;;;;;;;3.22;1.27;;;18.90;59.70;;;;;;5073646;28;20702;-64
2023/03/05 04:34:43;;;;;;;1.42;1.00;;;18.90;59.70;;;;;;5073501;28;20222;-64
2023/03/05 04:37:13;;;;;;;1.52;0.82;;;18.90;59.60;;;;;;5073552;28;20194;-65
2023/03/05 04:39:46;;;;;;;0.80;0.68;;;18.90;59.40;;;;;;5073798;28;20205;-64
2023/03/05 04:42:18;;;;;;;2.28;0.80;;;18.90;59.40;;;;;;5072730;28;20206;-64
2023/03/05 04:44:48;;;;;;;2.70;1.10;;;18.80;59.20;;;;;;5073261;28;20759;-64
2023/03/05 04:47:20;;;;;;;1.90;1.02;;;18.80;59.20;;;;;;5053075;28;20742;-62
2023/03/05 04:49:51;;;;;;;1.85;0.80;;;18.80;59.10;;;;;;5053741;28;20678;-63
2023/03/05 04:52:22;;;;;;;1.98;0.90;;;18.80;59.10;;;;;;5073160;28;20199;-60
2023/03/05 04:54:55;;;;;;;2.28;0.80;;;18.80;59.00;;;;;;5071189;28;20215;-55
2023/03/05 04:57:25;;;;;;;2.78;1.95;;;18.80;59.00;;;;;;5073401;28;20198;-62
2023/03/05 04:59:56;;;;;;;1.70;1.60;;;18.70;58.90;;;;;;5073327;28;20206;-61
2023/03/05 05:02:27;;;;;;;1.55;1.42;;;18.70;58.90;;;;;;5073452;28;20812;-62
2023/03/05 05:04:57;;;;;;;3.03;1.67;;;18.70;59.00;;;;;;5073754;28;20225;-61
2023/03/05 05:07:28;;;;;;;2.20;1.00;;;18.60;59.00;;;;;;5072656;28;20195;-63
2023/03/05 05:10:01;;;;;;;2.38;1.10;;;18.60;59.00;;;;;;5073203;28;20199;-60
2023/03/05 05:12:32;;;;;;;2.28;1.23;;;18.60;59.10;;;;;;5073003;28;20697;-60
2023/03/05 05:15:03;;;;;;;2.35;1.23;;;18.60;59.10;;;;;;5072740;28;20421;-66
2023/03/05 05:17:34;;;;;;;3.25;1.40;;;18.60;59.60;;;;;;5073714;28;20199;-62
2023/03/05 05:20:07;;;;;;;3.20;1.55;;;18.60;59.90;;;;;;5073064;28;20574;-61
2023/03/05 05:22:38;;;;;;;2.58;1.30;;;18.60;59.90;;;;;;5073002;28;20278;-61
2023/03/05 05:25:12;;;;;;;2.40;1.10;;;18.60;59.80;;;;;;5072424;28;20222;-62
2023/03/05 05:27:43;;;;;;;2.55;1.08;;;18.70;59.80;;;;;;5072640;28;20202;-62
2023/03/05 05:30:14;;;;;;;2.15;1.38;;;18.80;59.70;;;;;;5072797;28;20199;-62
2023/03/05 05:32:45;;;;;;;2.33;1.42;;;18.80;59.60;;;;;;5072031;28;20198;-61
2023/03/05 05:35:15;;;;;;;3.33;1.63;;;18.80;59.50;;;;;;5070643;28;20238;-61
2023/03/05 05:37:46;;;;;;;4.00;1.45;;;18.80;59.40;;;;;;5052748;28;20206;-62
2023/03/05 05:40:19;;;;;;;2.90;1.63;;;18.90;59.40;;;;;;5053851;28;20192;-61
2023/03/05 05:42:49;;;;;;;3.03;1.33;;;18.90;59.40;;;;;;5072288;28;20206;-61
2023/03/05 05:45:20;;;;;;;2.05;1.30;;;18.90;59.30;;;;;;5072277;28;20214;-61
2023/03/05 05:47:51;;;;;;;2.45;1.52;;;19.00;59.30;;;;;;5072664;28;20202;-60
2023/03/05 05:50:22;;;;;;;2.47;1.00;;;18.90;59.20;;;;;;5072405;28;20199;-61
2023/03/05 05:52:54;;;;;;;1.73;1.30;;;19.00;59.10;;;;;;5072021;28;20579;-61
2023/03/05 05:55:27;;;;;;;3.22;1.27;;;19.00;59.10;;;;;;5071398;28;20226;-61
2023/03/05 05:57:57;;;;;;;2.20;1.35;;;19.00;59.00;;;;;;5071051;28;20195;-62
2023/03/05 06:00:28;;;;;;;2.08;1.20;;;19.00;59.00;;;;;;5071707;28;20527;-60
2023/03/05 06:02:59;;;;;;;1.92;1.40;;;19.00;58.90;;;;;;5071521;28;20653;-62
2023/03/05 06:05:29;;;;;;;3.65;1.42;;;19.10;58.90;;;;;;5071694;28;20923;-60
2023/03/05 06:08:00;;;;;;;1.88;1.40;;;19.10;58.90;;;;;;5071668;28;20203;-61
2023/03/05 06:10:33;;;;;;;2.55;1.50;;;19.10;58.80;;;;;;5071935;28;20222;-61
2023/03/05 06:13:03;;;;;;;2.17;1.38;;;19.10;58.80;;;;;;5070471;28;20698;-62
2023/03/05 06:15:34;;;;;;;3.13;1.38;;;19.10;58.70;;;;;;5071242;28;20218;-61
2023/03/05 06:18:05;;;;;;;3.15;1.50;;;19.10;58.70;;;;;;5072216;28;20206;-61
2023/03/05 06:20:36;;;;;;;2.75;1.38;;;19.10;58.60;;;;;;5071816;28;20572;-61
2023/03/05 06:23:06;;;;;;;2.38;1.38;;;19.20;58.60;;;;;;5071313;28;20571;-61
2023/03/05 06:25:40;;;;;;;2.67;1.35;;;19.10;58.50;;;;;;5071063;28;20221;-62
2023/03/05 06:28:11;;;;;;;2.88;1.63;;;19.10;58.50;;;;;;5051333;28;20196;-61
2023/03/05 06:30:41;;;;;;;2.95;1.60;;;19.20;58.50;;;;;;5069528;28;20657;-61
2023/03/05 06:33:12;;;;;;;2.42;2.03;;;19.20;58.50;;;;;;5071479;28;20206;-61
2023/03/05 06:35:43;;;;;;;2.47;1.48;;;19.20;58.40;;;;;;5072116;28;20607;-61
2023/03/05 06:38:14;;;;;;;2.33;1.58;;;19.20;58.40;;;;;;5072488;28;20190;-61
2023/03/05 06:40:46;;;;;;;2.42;1.55;;;19.20;58.40;;;;;;5071781;28;20198;-61
2023/03/05 06:43:17;;;;;;;1.75;1.42;;;19.20;58.40;;;;;;5071719;28;20202;-61
2023/03/05 06:45:47;;;;;;;2.47;1.35;;;19.20;58.40;;;;;;5071665;28;20212;-61
2023/03/05 06:48:18;;;;;;;2.10;1.60;;;19.20;58.30;;;;;;5071661;28;20560;-62
2023/03/05 06:50:49;;;;;;;2.72;1.83;;;19.20;58.20;;;;;;5071366;28;20562;-62
2023/03/05 06:53:19;;;;;;;4.13;1.67;;;19.30;58.30;;;;;;5071313;28;20203;-62
2023/03/05 06:55:52;;;;;;;1.75;1.35;;;19.20;58.20;;;;;;5071342;28;20226;-62
2023/03/05 06:58:23;;;;;;;3.53;2.17;;;19.30;58.30;;;;;;5071374;28;20199;-61
2023/03/05 07:00:53;;;;;;;4.38;2.20;;;19.30;58.30;;;;;;5071342;28;20202;-61
2023/03/05 07:03:24;;;;;;;2.15;1.67;;;19.30;58.20;;;;;;5071251;28;20206;-61
2023/03/05 07:05:55;;;;;;;3.15;2.38;;;19.30;58.20;;;;;;5071007;28;20594;-61
2023/03/05 07:08:25;;;;;;;2.70;2.13;;;19.30;58.20;;;;;;5071161;28;20563;-62
2023/03/05 07:10:58;;;;;;;3.03;2.08;;;19.30;58.20;;;;;;5071148;28;20551;-61
2023/03/05 07:13:29;;;;;;;2.75;2.10;;;19.30;58.20;;;;;;5070803;28;20199;-61
2023/03/05 07:16:00;;;;;;;2.95;2.15;;;19.30;58.10;;;;;;5070957;28;20222;-61
2023/03/05 07:18:30;;;;;;;2.33;1.85;;;19.30;58.10;;;;;;5071582;28;20191;-61
2023/03/05 07:21:05;;;;;;;3.42;2.10;;;19.30;58.10;;;;;;5070909;28;20484;-61
2023/03/05 07:23:36;;;;;;;2.80;1.92;;;19.30;58.00;;;;;;5071325;28;20201;-61
2023/03/05 07:26:09;;;;;;;3.60;1.65;;;19.30;58.00;;;;;;5070537;28;20635;-61
2023/03/05 07:28:40;;;;;;;4.28;1.92;;;19.30;58.00;;;;;;5070328;28;20207;-61
2023/03/05 07:31:14;;;;;;;2.22;1.90;;;19.30;58.00;;;;;;5070530;28;20578;-62
2023/03/05 07:33:44;;;;;;;3.17;2.35;;;19.30;58.00;;;;;;5070287;28;20191;-62
2023/03/05 07:36:16;;;;;;;2.22;1.77;;;19.30;57.90;;;;;;5070389;28;20229;-61
2023/03/05 07:38:46;;;;;;;2.55;1.88;;;19.30;58.50;;;;;;5074331;28;20198;-61
2023/03/05 07:41:22;;;;;;;2.55;1.98;;;19.30;57.90;;;;;;5074746;28;20190;-62
2023/03/05 07:43:54;;;;;;;2.63;2.00;;;19.30;57.90;;;;;;5074605;28;20209;-61
2023/03/05 07:46:27;;;;;;;1.98;1.77;;;19.30;57.90;;;;;;5074062;28;20203;-62
2023/03/05 07:49:01;;;;;;;3.08;2.05;;;19.30;57.80;;;;;;5074890;28;20187;-61
2023/03/05 07:51:32;;;;;;;2.95;2.10;;;19.30;57.80;;;;;;5074667;28;20199;-62
2023/03/05 07:54:03;;;;;;;3.83;1.92;;;19.30;57.80;;;;;;5074417;28;20654;-61
2023/03/05 07:56:36;;;;;;;2.72;1.83;;;19.30;57.80;;;;;;5074763;28;20226;-61
2023/03/05 07:59:08;;;;;;;2.80;1.90;;;19.30;57.80;;;;;;5074851;28;20198;-65
2023/03/05 08:01:39;;;;;;;3.85;2.72;;;19.30;57.80;;;;;;5074202;28;20564;-60
2023/03/05 08:04:11;;;;;;;3.60;1.98;;;19.30;58.00;;;;;;5073906;28;20706;-57
2023/03/05 08:06:43;;;;;;;3.40;2.20;;;19.30;58.00;;;;;;5074056;28;20203;-62
2023/03/05 08:09:14;;;;;;;3.10;2.15;;;19.30;57.90;;;;;;5067755;28;20209;-62
2023/03/05 08:11:46;;;;;;;2.65;1.90;;;19.30;57.90;;;;;;5076704;28;20535;-59
2023/03/05 08:14:17;;;;;;;2.13;1.83;;;19.30;57.90;;;;;;5073502;28;20222;-62
2023/03/05 08:16:50;;;;;;;2.67;2.10;;;19.30;57.80;;;;;;5073093;28;20234;-61
2023/03/05 08:19:21;;;;;;;2.33;1.70;;;19.30;57.80;;;;;;5074467;28;20187;-62
2023/03/05 08:21:52;;;;;;;2.15;1.88;;;19.30;57.70;;;;;;5073785;28;20203;-61
2023/03/05 08:24:28;;;;;;;3.40;2.05;;;19.30;57.70;;;;;;5073298;28;20214;-62
2023/03/05 08:27:00;;;;;;;2.70;1.80;;;19.30;57.70;;;;;;5072882;28;20209;-62
2023/03/05 08:29:31;;;;;;;2.00;1.80;;;19.30;57.70;;;;;;5073206;28;20199;-62
2023/03/05 08:32:02;;;;;;;4.25;1.70;;;19.30;57.70;;;;;;5073451;28;20208;-61
2023/03/05 08:34:33;;;;;;;2.70;2.10;;;19.30;57.70;;;;;;5073458;28;20221;-61
2023/03/05 08:37:03;;;;;;;2.67;2.10;;;19.30;57.70;;;;;;5073613;28;20253;-61
2023/03/05 08:39:34;;;;;;;2.20;1.63;;;19.30;57.70;;;;;;5073990;28;20191;-61
2023/03/05 08:42:07;;;;;;;2.40;2.00;;;19.30;57.60;;;;;;5073259;28;20221;-59
2023/03/05 08:44:37;;;;;;;1.95;1.40;;;19.30;57.60;;;;;;5073356;28;20238;-62
2023/03/05 08:47:08;;;;;;;2.13;1.92;;;19.30;57.60;;;;;;5072792;28;20203;-61
2023/03/05 08:49:40;;;;;;;2.83;1.83;;;19.30;57.50;;;;;;5071907;28;20202;-61
2023/03/05 08:52:11;;;;;;;2.17;1.77;;;19.30;57.50;;;;;;5073852;28;20198;-61
2023/03/05 08:54:41;;;;;;;2.15;1.80;;;19.30;57.50;;;;;;5074009;28;20210;-61
2023/03/05 08:57:14;;;;;;;2.53;1.80;;;19.30;57.40;;;;;;5073429;28;20623;-60
2023/03/05 08:59:45;;;;;;;1.85;1.65;;;19.30;57.40;;;;;;5073423;28;20187;-61
2023/03/05 09:02:16;;;;;;;2.28;1.70;;;19.30;57.50;;;;;;5073238;28;20198;-62
2023/03/05 09:04:47;;;;;;;3.28;1.77;;;19.30;57.40;;;;;;5073632;28;20233;-62
2023/03/05 09:07:17;;;;;;;2.60;1.90;;;19.30;57.50;;;;;;5073093;28;20195;-62
2023/03/05 09:09:48;;;;;;;2.05;1.65;;;19.20;57.40;;;;;;5073585;28;20203;-62
2023/03/05 09:12:20;;;;;;;1.75;1.48;;;19.30;57.50;;;;;;5071762;28;20195;-62
2023/03/05 09:14:51;;;;;;;1.85;1.63;;;19.30;57.50;;;;;;5072810;28;20563;-62
2023/03/05 09:17:22;;;;;;;2.15;1.50;;;19.30;57.40;;;;;;5073660;28;20605;-62
2023/03/05 09:19:53;;;;;;;2.22;1.90;;;19.30;57.40;;;;;;5073038;28;20698;-62
2023/03/05 09:22:23;;;;;;;2.33;1.73;;;19.30;57.40;;;;;;5073019;28;20199;-62
2023/03/05 09:24:54;;;;;;;1.98;1.73;;;19.30;57.30;;;;;;5072844;28;20722;-58
2023/03/05 09:27:26;;;;;;;1.90;1.75;;;19.20;57.20;;;;;;5067087;28;20199;-62
2023/03/05 09:29:57;;;;;;;1.77;1.67;;;19.20;57.20;;;;;;5072805;28;20187;-62
2023/03/05 09:32:28;;;;;;;2.08;1.70;;;19.20;57.20;;;;;;5072441;28;20199;-61
2023/03/05 09:34:59;;;;;;;2.67;1.63;;;19.20;57.20;;;;;;5060104;28;20285;-60
2023/03/05 09:37:30;;;;;;;1.77;1.60;;;19.20;57.20;;;;;;5071557;28;20226;-61
2023/03/05 09:40:02;;;;;;;2.03;1.60;;;19.20;57.20;;;;;;5071720;28;20663;-62
2023/03/05 09:42:46;;;;;;;2.08;1.77;;;19.20;57.20;;;;;;5072600;28;20663;-61
2023/03/05 09:45:24;;;;;;;2.25;1.65;;;19.20;57.10;;;;;;5072295;28;20702;-61
2023/03/05 09:47:59;;;;;;;2.08;1.70;;;19.20;57.10;;;;;;5072912;28;20302;-60
2023/03/05 09:50:41;;;;;;;1.52;1.30;;;19.20;57.20;;;;;;5072560;28;20190;-60
2023/03/05 09:53:32;;;;;;;2.10;1.77;;;19.20;57.10;;;;;;5071832;28;20393;-60
2023/03/05 09:56:06;;;;;;;1.73;1.63;;;19.20;57.10;;;;;;5071609;28;20211;-61
2023/03/05 09:58:41;;;;;;;1.63;1.50;;;19.20;57.10;;;;;;5071868;28;20690;-60
2023/03/05 10:01:16;;;;;;;3.38;1.60;;;19.20;57.00;;;;;;5071750;28;20199;-57
2023/03/05 10:03:55;;;;;;;1.63;1.30;;;19.20;57.10;;;;;;5070793;28;20666;-59
2023/03/05 10:06:28;;;;;;;1.80;1.55;;;19.20;57.10;;;;;;5069394;28;20187;-58
2023/03/05 10:09:04;;;;;;;2.45;1.60;;;19.20;57.10;;;;;;5071739;28;20209;-59
2023/03/05 10:11:54;;;;;;;1.67;1.50;;;19.20;57.10;;;;;;5069195;28;20187;-58
2023/03/05 10:14:31;;;;;;;2.17;1.55;;;19.20;57.10;;;;;;5070373;28;20214;-60
2023/03/05 10:17:57;;;;;;;2.20;1.63;;;19.20;57.10;;;;;;5071106;28;20206;-58
2023/03/05 10:20:54;;;;;;;2.78;1.65;;;19.20;57.10;;;;;;5071483;28;20254;-58
2023/03/05 10:23:48;;;;;;;1.48;1.38;;;19.20;57.00;;;;;;5068660;28;20588;-58
2023/03/05 10:26:46;;;;;;;1.48;1.25;;;19.20;57.00;;;;;;5066233;28;20202;-59
2023/03/05 10:29:39;;;;;;;2.33;1.48;;;19.20;57.00;;;;;;5068613;28;20187;-58
2023/03/05 10:32:22;;;;;;;1.70;1.38;;;19.20;57.00;;;;;;5069053;28;20559;-59
2023/03/05 10:35:19;;;;;;;1.63;1.38;;;19.10;56.90;;;;;;5069331;28;20218;-59
2023/03/05 10:38:05;;;;;;;2.40;1.40;;;19.10;56.90;;;;;;5070544;28;20222;-57
2023/03/05 10:40:40;;;;;;;1.50;1.40;;;19.10;56.90;;;;;;5068800;28;20202;-59
2023/03/05 10:43:21;;;;;;;1.85;1.55;;;19.10;56.90;;;;;;5071192;28;20198;-59
2023/03/05 10:45:55;;;;;;;2.50;1.55;;;19.10;56.90;;;;;;5070217;28;20219;-55
2023/03/05 10:48:36;;;;;;;2.65;1.42;;;19.10;56.90;;;;;;5070679;28;20187;-59
2023/03/05 10:51:14;;;;;;;1.42;1.33;;;19.10;56.90;;;;;;5068773;28;20187;-57
2023/03/05 10:53:55;;;;;;;1.40;1.30;;;19.10;56.90;;;;;;5068364;28;20193;-58
2023/03/05 10:56:27;;;;;;;2.00;1.48;;;19.10;56.90;;;;;;5068294;28;20668;-56
2023/03/05 10:58:58;;;;;;;1.63;1.27;;;19.10;56.80;;;;;;5069963;28;20760;-59
2023/03/05 11:01:31;;;;;;;1.55;1.25;;;19.10;56.90;;;;;;5070189;28;20195;-58
2023/03/05 11:04:04;;;;;;;1.75;1.45;;;19.10;56.80;;;;;;5070683;28;20252;-58
2023/03/05 11:06:39;;;;;;;2.60;1.80;;;19.10;56.80;;;;;;5070301;28;20236;-57
2023/03/05 11:09:23;;;;;;;2.03;1.45;;;19.10;56.80;;;;;;5070069;28;20217;-59
2023/03/05 11:12:15;;;;;;;1.65;1.40;;;19.10;56.80;;;;;;5068563;28;20635;-58
2023/03/05 11:14:50;;;;;;;2.03;1.50;;;19.10;56.80;;;;;;5068529;28;20570;-60
2023/03/05 11:17:33;;;;;;;1.63;1.33;;;19.10;56.80;;;;;;5068137;28;20275;-56
2023/03/05 11:20:40;;;;;;;1.50;1.27;;;19.10;56.80;;;;;;5067907;28;20202;-56
2023/03/05 11:23:16;;;;;;;2.17;1.55;;;19.10;56.70;;;;;;5055143;28;20194;-56
2023/03/05 11:25:59;;;;;;;1.73;1.45;;;19.10;56.70;;;;;;5069888;28;20704;-57
2023/03/05 11:28:32;;;;;;;1.42;1.25;;;19.00;56.60;;;;;;5068958;28;20272;-58
2023/03/05 11:31:08;;;;;;;1.98;1.38;;;19.00;56.60;;;;;;5069823;28;20187;-59
2023/03/05 11:33:41;;;;;;;1.63;1.40;;;19.00;56.60;;;;;;5067965;28;20190;-58
2023/03/05 11:36:25;;;;;;;1.55;1.23;;;19.00;56.60;;;;;;5069687;28;20217;-59
2023/03/05 11:38:59;;;;;;;1.70;1.40;;;19.00;56.60;;;;;;5067461;28;20219;-60
2023/03/05 11:41:37;;;;;;;1.60;1.40;;;19.00;56.60;;;;;;5069110;28;20206;-58
2023/03/05 11:44:14;;;;;;;1.60;1.23;;;19.00;56.60;;;;;;5070332;28;20194;-60
2023/03/05 11:46:48;;;;;;;2.10;1.40;;;19.00;56.60;;;;;;5070741;28;20194;-60
2023/03/05 11:49:25;;;;;;;1.67;1.55;;;19.00;56.60;;;;;;5071479;28;20195;-60
2023/03/05 11:52:05;;;;;;;1.88;1.63;;;19.00;57.10;;;;;;5071408;28;20702;-57
2023/03/05 11:54:43;;;;;;;2.92;1.40;;;19.00;56.50;;;;;;5070930;28;20687;-59
2023/03/05 11:57:16;;;;;;;1.60;1.50;;;19.00;57.10;;;;;;5070793;28;20230;-58
2023/03/05 11:59:47;;;;;;;2.03;1.35;;;19.00;56.50;;;;;;5070261;28;20203;-60
2023/03/05 12:02:21;;;;;;;2.20;1.50;;;19.00;56.50;;;;;;5071154;28;20651;-60
2023/03/05 12:04:54;;;;;;;1.52;1.42;;;18.90;56.50;;;;;;5071278;28;20226;-59
2023/03/05 12:07:32;;;;;;;2.08;1.60;;;19.00;56.50;;;;;;5070788;28;20191;-59
2023/03/05 12:10:03;;;;;;;2.55;1.60;;;18.90;56.40;;;;;;5070690;28;20194;-59
2023/03/05 12:12:43;;;;;;;1.50;1.30;;;18.90;56.40;;;;;;5070517;28;20590;-60
2023/03/05 12:15:43;;;;;;;1.60;1.30;;;18.90;56.40;;;;;;5070843;28;20229;-58
2023/03/05 12:18:24;;;;;;;1.48;1.30;;;18.90;56.40;;;;;;5071169;28;20231;-59
2023/03/05 12:21:07;;;;;;;1.70;1.40;;;18.90;56.40;;;;;;5056296;28;20191;-59
2023/03/05 12:23:52;;;;;;;2.10;1.52;;;18.90;56.30;;;;;;5069788;28;20195;-59
2023/03/05 12:27:06;;;;;;;2.22;1.70;;;18.90;56.30;;;;;;5073753;28;20240;-59
2023/03/05 12:29:43;;;;;;;1.75;1.50;;;18.90;56.30;;;;;;5074309;28;20581;-59
2023/03/05 12:33:03;;;;;;;2.22;1.80;;;18.90;56.20;;;;;;5074345;28;20198;-58
2023/03/05 12:35:39;;;;;;;1.55;1.20;;;18.90;56.20;;;;;;5074113;28;20237;-54
2023/03/05 12:38:30;;;;;;;1.77;1.50;;;18.90;56.20;;;;;;5073314;28;20585;-57
2023/03/05 12:41:44;;;;;;;1.90;1.45;;;18.80;56.20;;;;;;5053815;28;20212;-59
2023/03/05 12:44:24;;;;;;;1.50;1.38;;;18.80;56.20;;;;;;5062283;28;20214;-59
2023/03/05 12:47:22;;;;;;;1.90;1.35;;;18.80;56.10;;;;;;5073758;28;20195;-60
2023/03/05 12:49:53;;;;;;;1.40;1.30;;;18.80;56.20;;;;;;5072869;28;20622;-58
2023/03/05 12:52:29;;;;;;;1.83;1.50;;;18.80;56.20;;;;;;5073547;28;20195;-59
2023/03/05 12:55:24;;;;;;;1.75;1.50;;;18.70;56.10;;;;;;5073790;28;20222;-59
2023/03/05 12:57:58;;;;;;;1.75;1.40;;;18.70;56.10;;;;;;5073619;28;20223;-59
2023/03/05 13:00:32;;;;;;;1.60;1.50;;;18.80;56.10;;;;;;5073820;28;20205;-61
2023/03/05 13:03:06;;;;;;;1.20;1.10;;;18.70;56.10;;;;;;5073708;28;20207;-60
2023/03/05 13:05:39;;;;;;;2.08;1.55;;;18.70;56.00;;;;;;5073511;28;20590;-60
2023/03/05 13:08:23;;;;;;;1.48;1.30;;;18.80;56.10;;;;;;5073311;28;20199;-61
2023/03/05 13:11:02;;;;;;;1.52;1.30;;;18.70;56.00;;;;;;5073304;28;20198;-60
2023/03/05 13:13:36;;;;;;;1.75;1.30;;;18.70;56.00;;;;;;5072735;28;20210;-59
2023/03/05 13:16:07;;;;;;;1.20;1.10;;;18.70;56.00;;;;;;5073407;28;20217;-59
2023/03/05 13:18:41;;;;;;;1.77;1.45;;;18.70;56.00;;;;;;5073933;28;20225;-60
2023/03/05 13:21:16;;;;;;;1.38;1.27;;;18.70;56.00;;;;;;5073356;28;20195;-59